createdAt,value
2017-03-30T00:01:18.202Z,0
2017-03-30T00:03:41.852Z,0
2017-03-30T00:06:05.637Z,0
2017-03-30T00:08:29.218Z,0
2017-03-30T00:10:52.880Z,0
2017-03-30T00:13:16.524Z,0
2017-03-30T00:15:40.193Z,0
2017-03-30T00:18:03.869Z,0
2017-03-30T00:20:27.538Z,0
2017-03-30T00:22:51.220Z,0
2017-03-30T00:25:14.897Z,0
2017-03-30T00:29:19.194Z,0
2017-03-30T00:31:42.897Z,0
2017-03-30T00:33:58.169Z,0
2017-03-30T00:36:08.526Z,0
2017-03-30T00:38:27.182Z,0
2017-03-30T00:40:50.875Z,0
2017-03-30T00:45:15.971Z,0
2017-03-30T00:47:39.529Z,0
2017-03-30T00:50:03.221Z,0
2017-03-30T00:52:26.893Z,0
2017-03-30T00:54:44.208Z,0
2017-03-30T00:57:07.885Z,0
2017-03-30T00:59:31.783Z,0
2017-03-30T01:01:42.426Z,0
2017-03-30T01:04:07.361Z,0
2017-03-30T01:06:30.850Z,0
2017-03-30T01:08:54.513Z,0
2017-03-30T01:11:19.209Z,0
2017-03-30T01:13:42.776Z,0
2017-03-30T01:16:06.592Z,0
2017-03-30T01:18:30.412Z,0
2017-03-30T01:20:54.019Z,0
2017-03-30T01:23:17.638Z,0
2017-03-30T01:25:41.344Z,0
2017-03-30T01:28:05.822Z,0
2017-03-30T01:30:30.444Z,0
2017-03-30T01:32:54.105Z,0
2017-03-30T01:35:17.782Z,0
2017-03-30T01:37:41.481Z,0
2017-03-30T01:40:05.165Z,0
2017-03-30T01:42:28.811Z,0
2017-03-30T01:44:53.475Z,0
2017-03-30T01:47:18.153Z,0
2017-03-30T01:51:35.138Z,0
2017-03-30T01:53:58.854Z,0
2017-03-30T01:56:23.545Z,0
2017-03-30T01:58:49.162Z,0
2017-03-30T02:01:12.861Z,0
2017-03-30T02:03:28.100Z,0
2017-03-30T02:05:51.772Z,0
2017-03-30T02:08:15.451Z,0
2017-03-30T02:10:39.117Z,0
2017-03-30T02:13:04.739Z,0
2017-03-30T02:17:30.176Z,0
2017-03-30T02:19:46.480Z,0
2017-03-30T02:22:11.171Z,0
2017-03-30T02:26:28.053Z,0
2017-03-30T02:30:44.932Z,0
2017-03-30T02:33:08.741Z,0
2017-03-30T02:35:32.420Z,0
2017-03-30T02:37:56.996Z,0
2017-03-30T02:40:21.574Z,0
2017-03-30T02:42:52.100Z,0
2017-03-30T02:45:15.563Z,0
2017-03-30T02:47:39.129Z,0
2017-03-30T02:50:02.693Z,0
2017-03-30T02:52:26.265Z,0
2017-03-30T02:54:49.809Z,0
2017-03-30T02:57:13.430Z,0
2017-03-30T02:59:37.165Z,0
2017-03-30T03:02:00.779Z,0
2017-03-30T03:04:24.404Z,0
2017-03-30T03:06:47.946Z,0
2017-03-30T03:09:12.656Z,0
2017-03-30T03:11:36.314Z,0
2017-03-30T03:14:00.623Z,0
2017-03-30T03:16:24.217Z,0
2017-03-30T03:18:48.041Z,0
2017-03-30T03:21:11.822Z,0
2017-03-30T03:23:36.363Z,0
2017-03-30T03:26:00.224Z,0
2017-03-30T03:28:23.476Z,0
2017-03-30T03:30:47.375Z,0
2017-03-30T03:33:10.927Z,0
2017-03-30T03:35:36.596Z,0
2017-03-30T03:38:02.102Z,0
2017-03-30T03:40:26.668Z,0
2017-03-30T03:42:51.383Z,0
2017-03-30T03:45:15.071Z,0
2017-03-30T03:47:39.757Z,0
2017-03-30T03:50:03.190Z,0
2017-03-30T03:52:25.067Z,0
2017-03-30T03:54:48.918Z,0
2017-03-30T03:57:12.620Z,0
2017-03-30T03:59:35.973Z,0
2017-03-30T04:01:59.490Z,0
2017-03-30T04:04:24.012Z,0
2017-03-30T04:06:49.679Z,0
2017-03-30T04:11:06.510Z,0
2017-03-30T04:13:16.677Z,0
2017-03-30T04:15:40.272Z,0
2017-03-30T04:18:03.851Z,0
2017-03-30T04:20:29.340Z,0
2017-03-30T04:22:54.842Z,0
2017-03-30T04:25:18.439Z,0
2017-03-30T04:27:43.029Z,0
2017-03-30T04:30:07.519Z,0
2017-03-30T04:32:31.144Z,0
2017-03-30T04:36:50.009Z,0
2017-03-30T04:39:13.545Z,0
2017-03-30T04:41:37.118Z,4
2017-03-30T04:44:00.691Z,4
2017-03-30T04:46:26.223Z,4
2017-03-30T04:50:17.531Z,8
2017-03-30T04:52:41.098Z,12
2017-03-30T04:55:05.604Z,20
2017-03-30T04:57:29.158Z,28
2017-03-30T04:59:52.730Z,36
2017-03-30T05:02:17.221Z,48
2017-03-30T05:04:40.677Z,60
2017-03-30T05:07:10.913Z,80
2017-03-30T05:09:34.470Z,104
2017-03-30T05:12:04.905Z,136
2017-03-30T05:14:28.608Z,180
2017-03-30T05:18:19.450Z,276
2017-03-30T05:20:44.036Z,352
2017-03-30T05:23:07.574Z,440
2017-03-30T05:25:31.153Z,536
2017-03-30T05:27:54.730Z,652
2017-03-30T05:30:19.360Z,776
2017-03-30T05:32:42.924Z,900
2017-03-30T05:35:06.549Z,1036
2017-03-30T05:37:29.919Z,1180
2017-03-30T05:39:53.712Z,1344
2017-03-30T05:42:17.372Z,1624
2017-03-30T05:44:40.864Z,2072
2017-03-30T05:47:04.525Z,2348
2017-03-30T05:49:29.126Z,3052
2017-03-30T05:51:52.726Z,3508
2017-03-30T05:54:16.418Z,4056
2017-03-30T05:56:40.241Z,4616
2017-03-30T05:59:04.131Z,5760
2017-03-30T06:01:29.093Z,16128
2017-03-30T06:03:53.163Z,22080
2017-03-30T06:06:19.433Z,23136
2017-03-30T06:08:44.506Z,25248
2017-03-30T06:11:08.942Z,29344
2017-03-30T06:13:34.105Z,22976
2017-03-30T06:17:35.868Z,16576
2017-03-30T06:20:02.305Z,25120
2017-03-30T06:22:26.784Z,22592
2017-03-30T06:24:51.145Z,26784
2017-03-30T06:27:15.371Z,33696
2017-03-30T06:29:39.694Z,31168
2017-03-30T06:32:04.071Z,30496
2017-03-30T06:34:28.442Z,29120
2017-03-30T06:36:52.801Z,32544
2017-03-30T06:39:17.203Z,32064
2017-03-30T06:41:41.582Z,8544
2017-03-30T06:44:06.062Z,5928
2017-03-30T06:46:30.411Z,5760
2017-03-30T06:48:55.814Z,5808
2017-03-30T06:51:20.946Z,5788
2017-03-30T06:53:46.370Z,5820
2017-03-30T06:56:10.677Z,5920
2017-03-30T06:58:35.982Z,6184
2017-03-30T07:01:01.492Z,6508
2017-03-30T07:03:27.093Z,6828
2017-03-30T07:05:51.815Z,8532
2017-03-30T07:08:16.829Z,46336
2017-03-30T07:10:41.825Z,55488
2017-03-30T07:13:06.867Z,62208
2017-03-30T07:15:32.237Z,65824
2017-03-30T07:17:57.762Z,69824
2017-03-30T07:20:23.652Z,72416
2017-03-30T07:22:49.276Z,74432
2017-03-30T07:25:15.197Z,72800
2017-03-30T07:27:33.068Z,71008
2017-03-30T07:29:58.995Z,70944
2017-03-30T07:32:25.889Z,77056
2017-03-30T07:34:52.152Z,64416
2017-03-30T07:37:18.528Z,16224
2017-03-30T07:39:45.003Z,13864
2017-03-30T07:42:11.537Z,11460
2017-03-30T07:44:38.235Z,14092
2017-03-30T07:47:05.256Z,12188
2017-03-30T07:49:32.320Z,16640
2017-03-30T07:51:59.226Z,55360
2017-03-30T07:54:26.373Z,66624
2017-03-30T07:56:53.151Z,70048
2017-03-30T07:59:20.126Z,70848
2017-03-30T08:01:47.062Z,68800
2017-03-30T08:04:16.861Z,20128
2017-03-30T08:06:43.632Z,10924
2017-03-30T08:09:10.412Z,10600
2017-03-30T08:11:36.936Z,10328
2017-03-30T08:14:03.221Z,10200
2017-03-30T08:16:29.339Z,9496
2017-03-30T08:18:55.257Z,9248
2017-03-30T08:21:21.868Z,9032
2017-03-30T08:23:47.352Z,8744
2017-03-30T08:26:12.804Z,8516
2017-03-30T08:28:39.478Z,8284
2017-03-30T08:31:05.311Z,8488
2017-03-30T08:33:31.404Z,8420
2017-03-30T08:35:57.244Z,8280
2017-03-30T08:38:23.209Z,7868
2017-03-30T08:40:50.111Z,7448
2017-03-30T08:43:21.460Z,7036
2017-03-30T08:45:55.057Z,6852
2017-03-30T08:48:20.859Z,6672
2017-03-30T08:50:46.558Z,6356
2017-03-30T08:53:17.832Z,6428
2017-03-30T08:55:44.499Z,6540
2017-03-30T08:58:10.175Z,6512
2017-03-30T09:00:41.824Z,6360
2017-03-30T09:03:06.534Z,6072
2017-03-30T09:05:32.189Z,6072
2017-03-30T09:07:56.858Z,6364
2017-03-30T09:10:21.470Z,6028
2017-03-30T09:12:47.146Z,6124
2017-03-30T09:15:12.814Z,5840
2017-03-30T09:17:38.363Z,6008
2017-03-30T09:20:03.119Z,5840
2017-03-30T09:22:27.605Z,5728
2017-03-30T09:24:54.261Z,5636
2017-03-30T09:27:18.901Z,5640
2017-03-30T09:29:44.538Z,5468
2017-03-30T09:32:09.093Z,5336
2017-03-30T09:34:42.305Z,5068
2017-03-30T09:37:06.891Z,4836
2017-03-30T09:39:31.461Z,4796
2017-03-30T09:41:56.003Z,4672
2017-03-30T09:44:22.588Z,4500
2017-03-30T09:46:48.193Z,4260
2017-03-30T09:49:13.002Z,4260
2017-03-30T09:51:38.509Z,4160
2017-03-30T09:53:49.053Z,3976
2017-03-30T09:56:14.748Z,3960
2017-03-30T09:58:41.369Z,3860
2017-03-30T10:01:05.929Z,3792
2017-03-30T10:03:30.549Z,3704
2017-03-30T10:05:55.089Z,3592
2017-03-30T10:08:19.697Z,3484
2017-03-30T10:10:46.262Z,3392
2017-03-30T10:13:10.778Z,3372
2017-03-30T10:15:35.284Z,3296
2017-03-30T10:17:59.848Z,3232
2017-03-30T10:20:25.337Z,3172
2017-03-30T10:22:42.349Z,3124
2017-03-30T10:25:06.822Z,3064
2017-03-30T10:27:31.340Z,2996
2017-03-30T10:29:56.886Z,2940
2017-03-30T10:32:21.174Z,2880
2017-03-30T10:34:45.734Z,2808
2017-03-30T10:37:10.177Z,2748
2017-03-30T10:39:34.639Z,2712
2017-03-30T10:41:59.149Z,2668
2017-03-30T10:44:23.794Z,2636
2017-03-30T10:48:49.727Z,2564
2017-03-30T10:51:14.161Z,2532
2017-03-30T10:55:23.732Z,2464
2017-03-30T10:57:49.350Z,2432
2017-03-30T11:00:13.811Z,2388
2017-03-30T11:02:38.683Z,2360
2017-03-30T11:05:03.393Z,2320
2017-03-30T11:07:28.104Z,2232
2017-03-30T11:09:53.533Z,2244
2017-03-30T11:12:18.939Z,2204
2017-03-30T11:14:43.244Z,2156
2017-03-30T11:17:07.640Z,2128
2017-03-30T11:19:31.978Z,2104
2017-03-30T11:21:56.350Z,2088
2017-03-30T11:24:20.740Z,2068
2017-03-30T11:26:45.131Z,2052
2017-03-30T11:29:09.533Z,2032
2017-03-30T11:31:33.882Z,1984
2017-03-30T11:33:58.247Z,1960
2017-03-30T11:36:23.814Z,1936
2017-03-30T11:38:48.175Z,1916
2017-03-30T11:41:13.687Z,1888
2017-03-30T11:43:38.074Z,1860
2017-03-30T11:46:02.654Z,1816
2017-03-30T11:48:26.896Z,1800
2017-03-30T11:50:51.293Z,1800
2017-03-30T11:53:15.599Z,1772
2017-03-30T11:55:40.036Z,1756
2017-03-30T11:58:04.351Z,1736
2017-03-30T12:00:28.784Z,1716
2017-03-30T12:02:53.078Z,1696
2017-03-30T12:05:17.547Z,1692
2017-03-30T12:07:41.812Z,1692
2017-03-30T12:10:06.187Z,1692
2017-03-30T12:12:30.534Z,1700
2017-03-30T12:14:54.885Z,1680
2017-03-30T12:17:20.559Z,1664
2017-03-30T12:19:36.488Z,1660
2017-03-30T12:22:01.104Z,1656
2017-03-30T12:24:25.422Z,1648
2017-03-30T12:26:49.686Z,1644
2017-03-30T12:29:14.016Z,1648
2017-03-30T12:31:38.250Z,1648
2017-03-30T12:34:02.592Z,1624
2017-03-30T12:36:28.906Z,1620
2017-03-30T12:38:54.183Z,1620
2017-03-30T12:41:19.417Z,1608
2017-03-30T12:43:43.752Z,1612
2017-03-30T12:46:08.053Z,1596
2017-03-30T12:48:33.360Z,1584
2017-03-30T12:50:58.676Z,1556
2017-03-30T12:53:00.689Z,1544
2017-03-30T12:55:25.011Z,1568
2017-03-30T12:57:49.327Z,1564
2017-03-30T13:00:13.639Z,1556
2017-03-30T13:02:37.890Z,1556
2017-03-30T13:05:03.214Z,1548
2017-03-30T13:09:20.998Z,1528
2017-03-30T13:11:36.977Z,1524
2017-03-30T13:14:02.286Z,1512
2017-03-30T13:16:26.600Z,1512
2017-03-30T13:18:50.905Z,1512
2017-03-30T13:22:50.951Z,1480
2017-03-30T13:25:16.434Z,1440
2017-03-30T13:27:40.734Z,1468
2017-03-30T13:30:05.450Z,1468
2017-03-30T13:32:29.997Z,1456
2017-03-30T13:34:55.015Z,1412
2017-03-30T13:37:20.038Z,1384
2017-03-30T13:39:45.018Z,1412
2017-03-30T13:42:09.285Z,1412
2017-03-30T13:44:33.904Z,1408
2017-03-30T13:46:58.098Z,1392
2017-03-30T13:49:23.238Z,1388
2017-03-30T13:51:47.979Z,1384
2017-03-30T13:54:12.380Z,1380
2017-03-30T13:56:36.617Z,1388
2017-03-30T13:59:01.357Z,1380
2017-03-30T14:01:25.703Z,1372
2017-03-30T14:03:50.351Z,1360
2017-03-30T14:06:15.027Z,1348
2017-03-30T14:08:30.243Z,1340
2017-03-30T14:11:05.188Z,1352
2017-03-30T14:13:30.224Z,1356
2017-03-30T14:15:55.467Z,1352
2017-03-30T14:21:47.168Z,1332
2017-03-30T14:24:12.309Z,1320
2017-03-30T14:26:36.676Z,1304
2017-03-30T14:29:01.035Z,1296
2017-03-30T14:31:25.267Z,1296
2017-03-30T14:33:49.557Z,1300
2017-03-30T14:36:14.128Z,1312
2017-03-30T14:38:30.185Z,1324
2017-03-30T14:40:54.584Z,1328
2017-03-30T14:43:18.820Z,1324
2017-03-30T14:45:34.873Z,1312
2017-03-30T14:47:59.034Z,1284
2017-03-30T14:50:23.309Z,1260
2017-03-30T14:52:48.365Z,1236
2017-03-30T14:55:11.866Z,1216
2017-03-30T14:57:36.237Z,1208
2017-03-30T15:00:00.531Z,1212
2017-03-30T15:02:24.787Z,1220
2017-03-30T15:04:49.073Z,1212
2017-03-30T15:07:13.430Z,1216
2017-03-30T15:09:37.599Z,1220
2017-03-30T15:12:01.935Z,1168
2017-03-30T15:14:27.429Z,1216
2017-03-30T15:16:51.539Z,1208
2017-03-30T15:19:07.366Z,1200
2017-03-30T15:21:31.621Z,1196
2017-03-30T15:23:55.898Z,1192
2017-03-30T15:26:22.003Z,1184
2017-03-30T15:28:46.329Z,1180
2017-03-30T15:31:10.510Z,1172
2017-03-30T15:33:34.928Z,1164
2017-03-30T15:35:59.196Z,1152
2017-03-30T15:38:23.561Z,1148
2017-03-30T15:40:47.965Z,1140
2017-03-30T15:43:12.250Z,1128
2017-03-30T15:45:36.642Z,1124
2017-03-30T15:48:00.939Z,1120
2017-03-30T15:50:25.221Z,1108
2017-03-30T15:52:49.515Z,1100
2017-03-30T15:56:50.090Z,1096
2017-03-30T15:59:05.960Z,1092
2017-03-30T16:01:30.247Z,1076
2017-03-30T16:03:54.543Z,1064
2017-03-30T16:06:18.842Z,1060
2017-03-30T16:08:43.170Z,1052
2017-03-30T16:10:53.462Z,1044
2017-03-30T16:13:17.947Z,1036
2017-03-30T16:15:42.119Z,1024
2017-03-30T16:18:06.400Z,1016
2017-03-30T16:20:30.647Z,1008
2017-03-30T16:22:54.953Z,996
2017-03-30T16:25:19.136Z,988
2017-03-30T16:27:43.415Z,972
2017-03-30T16:29:53.851Z,968
2017-03-30T16:32:09.658Z,960
2017-03-30T16:34:33.998Z,944
2017-03-30T16:36:58.260Z,932
2017-03-30T16:39:22.497Z,912
2017-03-30T16:41:46.801Z,892
2017-03-30T16:44:11.168Z,880
2017-03-30T16:46:35.271Z,864
2017-03-30T16:48:59.551Z,848
2017-03-30T16:51:23.768Z,820
2017-03-30T16:53:48.032Z,804
2017-03-30T16:56:12.236Z,784
2017-03-30T16:58:36.491Z,764
2017-03-30T17:01:00.674Z,732
2017-03-30T17:03:24.894Z,708
2017-03-30T17:05:49.146Z,680
2017-03-30T17:08:13.323Z,652
2017-03-30T17:10:37.404Z,620
2017-03-30T17:13:01.613Z,588
2017-03-30T17:15:25.797Z,548
2017-03-30T17:17:49.956Z,508
2017-03-30T17:20:07.779Z,464
2017-03-30T17:22:31.988Z,416
2017-03-30T17:24:57.208Z,376
2017-03-30T17:27:28.222Z,332
2017-03-30T17:29:59.202Z,292
2017-03-30T17:32:14.975Z,256
2017-03-30T17:34:40.183Z,220
2017-03-30T17:38:31.591Z,168
2017-03-30T17:41:02.458Z,140
2017-03-30T17:43:28.670Z,116
2017-03-30T17:45:46.376Z,100
2017-03-30T17:48:26.461Z,80
2017-03-30T17:50:54.017Z,64
2017-03-30T17:53:18.101Z,48
2017-03-30T17:55:42.174Z,40
2017-03-30T17:58:06.275Z,32
2017-03-30T18:00:30.344Z,24
2017-03-30T18:02:55.498Z,12
2017-03-30T18:05:31.056Z,8
2017-03-30T18:07:56.367Z,4
2017-03-30T18:10:20.395Z,4
2017-03-30T18:12:44.464Z,4
2017-03-30T18:15:08.542Z,0
2017-03-30T18:17:31.080Z,0
2017-03-30T18:19:56.133Z,0
2017-03-30T18:22:03.346Z,0
2017-03-30T18:24:27.459Z,0
2017-03-30T18:28:38.611Z,0
2017-03-30T18:31:02.652Z,0
2017-03-30T18:33:26.657Z,0
2017-03-30T18:35:42.179Z,0
2017-03-30T18:38:06.183Z,0
2017-03-30T18:40:30.174Z,0
2017-03-30T18:42:45.732Z,0
2017-03-30T18:45:09.735Z,0
2017-03-30T18:47:34.727Z,0
2017-03-30T18:49:50.383Z,0
2017-03-30T18:52:00.789Z,0
2017-03-30T18:54:16.364Z,0
2017-03-30T18:58:18.762Z,0
2017-03-30T19:00:42.824Z,0
2017-03-30T19:03:06.839Z,0
2017-03-30T19:05:32.822Z,0
2017-03-30T19:07:56.811Z,0
2017-03-30T19:10:20.782Z,0
2017-03-30T19:12:30.617Z,0
2017-03-30T19:14:41.033Z,0
2017-03-30T19:17:07.002Z,0
2017-03-30T19:19:31.015Z,0
2017-03-30T19:21:57.075Z,0
2017-03-30T19:24:22.040Z,0
2017-03-30T19:26:53.885Z,0
2017-03-30T19:29:17.894Z,0
2017-03-30T19:31:41.870Z,0
2017-03-30T19:34:05.760Z,0
2017-03-30T19:36:29.731Z,0
2017-03-30T19:40:30.033Z,0
2017-03-30T19:42:54.019Z,0
2017-03-30T19:45:19.945Z,0
2017-03-30T19:47:43.970Z,0
2017-03-30T19:50:08.982Z,0
2017-03-30T19:52:32.943Z,0
2017-03-30T19:54:57.899Z,0
2017-03-30T19:57:21.790Z,0
2017-03-30T19:59:45.667Z,0
2017-03-30T20:02:09.656Z,0
2017-03-30T20:04:33.671Z,0
2017-03-30T20:06:57.512Z,0
2017-03-30T20:09:21.501Z,0
2017-03-30T20:11:45.457Z,0
2017-03-30T20:14:09.421Z,0
2017-03-30T20:16:33.285Z,0
2017-03-30T20:18:59.160Z,0
2017-03-30T20:21:16.923Z,0
2017-03-30T20:23:26.680Z,0
2017-03-30T20:25:50.591Z,0
2017-03-30T20:28:16.526Z,0
2017-03-30T20:30:40.521Z,0
2017-03-30T20:34:43.159Z,0
2017-03-30T20:38:44.136Z,0
2017-03-30T20:42:44.156Z,0
2017-03-30T20:45:09.086Z,0
2017-03-30T20:47:47.499Z,0
2017-03-30T20:51:47.644Z,0
2017-03-30T20:55:48.497Z,0
2017-03-30T20:59:48.593Z,0
2017-03-30T21:03:48.654Z,0
2017-03-30T21:06:13.631Z,0
2017-03-30T21:08:45.016Z,0
2017-03-30T21:11:09.932Z,0
2017-03-30T21:13:34.828Z,0
2017-03-30T21:16:13.569Z,0
2017-03-30T21:20:15.211Z,0
2017-03-30T21:22:54.010Z,0
2017-03-30T21:26:54.028Z,0
2017-03-30T21:29:33.923Z,0
2017-03-30T21:33:33.950Z,0
2017-03-30T21:36:06.878Z,0
2017-03-30T21:38:24.350Z,0
2017-03-30T21:40:49.194Z,0
2017-03-30T21:44:49.225Z,0
2017-03-30T21:48:49.152Z,0
2017-03-30T21:51:20.692Z,0
2017-03-30T21:53:46.521Z,0
2017-03-30T21:57:53.935Z,0
2017-03-30T22:00:26.378Z,0
2017-03-30T22:02:42.991Z,0
2017-03-30T22:05:07.204Z,0
2017-03-30T22:09:15.782Z,0
2017-03-30T22:20:36.895Z,0
2017-03-30T22:23:07.686Z,0
2017-03-30T22:25:46.660Z,0
2017-03-30T22:28:26.001Z,0
2017-03-30T22:30:50.974Z,0
2017-03-30T22:33:17.036Z,0
2017-03-30T22:35:41.999Z,0
2017-03-30T22:38:06.895Z,0
2017-03-30T22:40:31.774Z,0
2017-03-30T22:43:02.711Z,0
2017-03-30T22:45:26.429Z,0
2017-03-30T22:47:51.334Z,0
2017-03-30T22:51:51.308Z,0
2017-03-30T22:54:31.111Z,0
2017-03-30T22:56:56.041Z,0
2017-03-30T22:59:21.042Z,0
2017-03-30T23:01:48.110Z,0
2017-03-30T23:06:07.170Z,0
2017-03-30T23:08:35.281Z,0
2017-03-30T23:11:14.608Z,0
2017-03-30T23:13:56.518Z,0
2017-03-30T23:16:21.079Z,0
2017-03-30T23:18:45.970Z,0
2017-03-30T23:21:17.413Z,0
2017-03-30T23:23:41.229Z,0
2017-03-30T23:26:05.129Z,0
2017-03-30T23:28:46.102Z,0
2017-03-30T23:32:48.583Z,0
2017-03-30T23:35:17.506Z,0
2017-03-30T23:37:52.582Z,0
2017-03-30T23:41:53.803Z,0
2017-03-30T23:46:03.165Z,0
2017-03-30T23:55:19.506Z,0
2017-03-30T23:59:19.588Z,0
